createdAt,value
2017-09-06T00:00:00.028Z,1001.66
2017-09-06T00:01:01.518Z,1001.64
2017-09-06T00:02:02.945Z,1001.63
2017-09-06T00:03:04.374Z,1001.64
2017-09-06T00:04:05.792Z,1001.61
2017-09-06T00:05:07.245Z,1001.52
2017-09-06T00:06:08.648Z,1001.57
2017-09-06T00:07:10.074Z,1001.59
2017-09-06T00:08:11.492Z,1001.58
2017-09-06T00:09:12.916Z,1001.60
2017-09-06T00:10:14.337Z,1001.61
2017-09-06T00:11:15.760Z,1001.62
2017-09-06T00:12:17.185Z,1001.58
2017-09-06T00:13:18.608Z,1001.58
2017-09-06T00:14:20.029Z,1001.57
2017-09-06T00:15:21.460Z,1001.53
2017-09-06T00:16:22.881Z,1001.48
2017-09-06T00:17:24.300Z,1001.56
2017-09-06T00:18:25.721Z,1001.49
2017-09-06T00:19:27.157Z,1001.53
2017-09-06T00:20:28.577Z,1001.56
2017-09-06T00:21:30.001Z,1001.48
2017-09-06T00:22:31.421Z,1001.56
2017-09-06T00:23:32.848Z,1001.57
2017-09-06T00:24:34.264Z,1001.56
2017-09-06T00:25:35.678Z,1001.54
2017-09-06T00:26:37.097Z,1001.48
2017-09-06T00:27:38.522Z,1001.49
2017-09-06T00:28:39.946Z,1001.50
2017-09-06T00:29:41.360Z,1001.51
2017-09-06T00:30:42.789Z,1001.44
2017-09-06T00:31:44.209Z,1001.40
2017-09-06T00:32:45.626Z,1001.41
2017-09-06T00:33:47.092Z,1001.43
2017-09-06T00:34:48.481Z,1001.46
2017-09-06T00:35:49.898Z,1001.52
2017-09-06T00:36:51.329Z,1001.46
2017-09-06T00:37:52.757Z,1001.47
2017-09-06T00:38:54.173Z,1001.47
2017-09-06T00:39:55.639Z,1001.48
2017-09-06T00:40:57.025Z,1001.49
2017-09-06T00:41:58.445Z,1001.45
2017-09-06T00:42:59.866Z,1001.43
2017-09-06T00:44:01.290Z,1001.43
2017-09-06T00:45:02.710Z,1001.46
2017-09-06T00:46:04.139Z,1001.44
2017-09-06T00:47:05.572Z,1001.45
2017-09-06T00:48:07.033Z,1001.41
2017-09-06T00:49:08.459Z,1001.41
2017-09-06T00:50:09.876Z,1001.39
2017-09-06T00:51:11.294Z,1001.42
2017-09-06T00:52:12.724Z,1001.42
2017-09-06T00:53:14.145Z,1001.41
2017-09-06T00:54:15.568Z,1001.41
2017-09-06T00:55:17.117Z,1001.40
2017-09-06T00:56:18.543Z,1001.38
2017-09-06T00:57:19.964Z,1001.38
2017-09-06T00:58:21.467Z,1001.35
2017-09-06T00:59:22.896Z,1001.32
2017-09-06T01:00:24.318Z,1001.39
2017-09-06T01:01:25.760Z,1001.37
2017-09-06T01:02:27.247Z,1001.29
2017-09-06T01:03:28.667Z,1001.32
2017-09-06T01:04:30.088Z,1001.29
2017-09-06T01:05:31.504Z,1001.28
2017-09-06T01:06:33.022Z,1001.30
2017-09-06T01:07:34.451Z,1001.36
2017-09-06T01:08:35.875Z,1001.36
2017-09-06T01:09:37.308Z,1001.28
2017-09-06T01:10:38.728Z,1001.27
2017-09-06T01:11:40.150Z,1001.27
2017-09-06T01:12:41.605Z,1001.28
2017-09-06T01:13:43.080Z,1001.25
2017-09-06T01:14:44.510Z,1001.24
2017-09-06T01:15:45.935Z,1001.21
2017-09-06T01:16:47.372Z,1001.24
2017-09-06T01:17:48.794Z,1001.25
2017-09-06T01:18:50.231Z,1001.27
2017-09-06T01:19:51.669Z,1001.28
2017-09-06T01:20:53.096Z,1001.24
2017-09-06T01:21:54.520Z,1001.23
2017-09-06T01:22:55.957Z,1001.23
2017-09-06T01:23:57.395Z,1001.21
2017-09-06T01:24:58.812Z,1001.25
2017-09-06T01:26:00.233Z,1001.21
2017-09-06T01:27:01.666Z,1001.19
2017-09-06T01:28:03.084Z,1001.18
2017-09-06T01:29:04.510Z,1001.12
2017-09-06T01:30:05.940Z,1001.17
2017-09-06T01:31:07.358Z,1001.10
2017-09-06T01:32:08.793Z,1001.17
2017-09-06T01:33:10.215Z,1001.14
2017-09-06T01:34:11.638Z,1001.12
2017-09-06T01:35:13.059Z,1001.18
2017-09-06T01:36:14.476Z,1001.14
2017-09-06T01:37:15.902Z,1001.21
2017-09-06T01:38:17.320Z,1001.18
2017-09-06T01:39:18.744Z,1001.22
2017-09-06T01:40:20.163Z,1001.19
2017-09-06T01:41:21.587Z,1001.16
2017-09-06T01:42:23.006Z,1001.18
2017-09-06T01:43:24.427Z,1001.09
2017-09-06T01:44:25.848Z,1001.09
2017-09-06T01:45:27.272Z,1001.17
2017-09-06T01:46:28.689Z,1001.17
2017-09-06T01:47:30.111Z,1001.18
2017-09-06T01:48:31.539Z,1001.16
2017-09-06T01:49:32.958Z,1001.09
2017-09-06T01:50:34.378Z,1001.12
2017-09-06T01:51:35.799Z,1001.13
2017-09-06T01:52:37.217Z,1001.12
2017-09-06T01:53:38.635Z,1001.10
2017-09-06T01:54:40.061Z,1001.15
2017-09-06T01:55:41.479Z,1001.12
2017-09-06T01:56:42.900Z,1001.09
2017-09-06T01:57:44.322Z,1001.08
2017-09-06T01:58:45.741Z,1001.03
2017-09-06T01:59:47.175Z,1001.02
2017-09-06T02:00:48.597Z,1001.07
2017-09-06T02:01:50.020Z,1000.99
2017-09-06T02:02:51.445Z,1000.94
2017-09-06T02:03:52.866Z,1000.97
2017-09-06T02:04:54.287Z,1001.01
2017-09-06T02:05:55.717Z,1000.96
2017-09-06T02:06:57.140Z,1001.00
2017-09-06T02:07:58.561Z,1000.99
2017-09-06T02:08:59.987Z,1000.91
2017-09-06T02:10:01.402Z,1000.96
2017-09-06T02:11:02.825Z,1000.85
2017-09-06T02:12:04.239Z,1000.96
2017-09-06T02:13:05.657Z,1000.96
2017-09-06T02:14:07.083Z,1000.95
2017-09-06T02:15:08.501Z,1000.90
2017-09-06T02:16:09.920Z,1000.87
2017-09-06T02:17:11.338Z,1000.91
2017-09-06T02:18:12.762Z,1000.81
2017-09-06T02:19:14.186Z,1000.84
2017-09-06T02:20:15.605Z,1000.86
2017-09-06T02:21:17.027Z,1000.89
2017-09-06T02:22:18.453Z,1000.86
2017-09-06T02:23:19.869Z,1000.81
2017-09-06T02:24:21.299Z,1000.79
2017-09-06T02:25:22.714Z,1000.81
2017-09-06T02:26:24.142Z,1000.82
2017-09-06T02:27:25.564Z,1000.81
2017-09-06T02:28:26.996Z,1000.75
2017-09-06T02:29:28.431Z,1000.75
2017-09-06T02:30:29.841Z,1000.75
2017-09-06T02:31:31.270Z,1000.74
2017-09-06T02:32:32.693Z,1000.72
2017-09-06T02:33:34.120Z,1000.68
2017-09-06T02:34:35.540Z,1000.62
2017-09-06T02:35:36.968Z,1000.61
2017-09-06T02:36:38.391Z,1000.61
2017-09-06T02:37:39.809Z,1000.61
2017-09-06T02:38:41.231Z,1000.56
2017-09-06T02:39:42.650Z,1000.55
2017-09-06T02:42:04.979Z,1000.44
2017-09-06T02:43:06.408Z,1000.45
2017-09-06T02:44:07.825Z,1000.44
2017-09-06T02:45:09.247Z,1000.38
2017-09-06T02:46:10.672Z,1000.41
2017-09-06T02:47:12.090Z,1000.37
2017-09-06T02:48:13.519Z,1000.36
2017-09-06T02:49:14.972Z,1000.40
2017-09-06T02:50:16.410Z,1000.41
2017-09-06T02:51:17.825Z,1000.40
2017-09-06T02:52:19.253Z,1000.36
2017-09-06T02:53:20.674Z,1000.39
2017-09-06T02:54:22.098Z,1000.44
2017-09-06T02:55:23.560Z,1000.37
2017-09-06T02:56:25.063Z,1000.44
2017-09-06T02:57:26.500Z,1000.45
2017-09-06T02:58:27.928Z,1000.40
2017-09-06T02:59:29.377Z,1000.42
2017-09-06T03:00:30.801Z,1000.39
2017-09-06T03:01:32.245Z,1000.40
2017-09-06T03:02:33.752Z,1000.37
2017-09-06T03:03:35.176Z,1000.39
2017-09-06T03:04:36.601Z,1000.35
2017-09-06T03:05:38.030Z,1000.34
2017-09-06T03:06:39.449Z,1000.32
2017-09-06T03:07:40.922Z,1000.31
2017-09-06T03:08:42.358Z,1000.32
2017-09-06T03:09:43.790Z,1000.35
2017-09-06T03:10:45.210Z,1000.29
2017-09-06T03:11:46.636Z,1000.29
2017-09-06T03:12:48.092Z,1000.23
2017-09-06T03:13:49.477Z,1000.25
2017-09-06T03:14:50.905Z,1000.26
2017-09-06T03:15:52.333Z,1000.27
2017-09-06T03:16:53.761Z,1000.32
2017-09-06T03:17:55.180Z,1000.28
2017-09-06T03:18:56.606Z,1000.28
2017-09-06T03:19:58.024Z,1000.27
2017-09-06T03:20:59.452Z,1000.23
2017-09-06T03:22:00.880Z,1000.28
2017-09-06T03:23:02.302Z,1000.25
2017-09-06T03:24:03.732Z,1000.26
2017-09-06T03:25:05.147Z,1000.29
2017-09-06T03:26:06.572Z,1000.21
2017-09-06T03:27:07.987Z,1000.18
2017-09-06T03:28:09.423Z,1000.19
2017-09-06T03:29:10.841Z,1000.16
2017-09-06T03:30:12.261Z,1000.12
2017-09-06T03:31:13.683Z,1000.13
2017-09-06T03:32:15.102Z,1000.08
2017-09-06T03:33:16.529Z,1000.11
2017-09-06T03:34:17.952Z,1000.10
2017-09-06T03:35:19.375Z,1000.09
2017-09-06T03:36:20.803Z,1000.13
2017-09-06T03:37:22.224Z,1000.08
2017-09-06T03:38:23.647Z,1000.07
2017-09-06T03:39:25.078Z,1000.08
2017-09-06T03:40:26.501Z,1000.08
2017-09-06T03:41:27.934Z,1000.11
2017-09-06T03:42:29.354Z,1000.08
2017-09-06T03:43:30.779Z,1000.06
2017-09-06T03:44:32.196Z,1000.05
2017-09-06T03:45:33.621Z,1000.03
2017-09-06T03:46:35.044Z,1000.00
2017-09-06T03:47:36.476Z,999.99
2017-09-06T03:48:37.897Z,999.94
2017-09-06T03:49:39.317Z,999.93
2017-09-06T03:50:40.743Z,999.94
2017-09-06T03:51:42.165Z,999.94
2017-09-06T03:52:43.579Z,999.89
2017-09-06T03:53:45.017Z,999.89
2017-09-06T03:54:46.441Z,999.91
2017-09-06T03:55:47.861Z,999.90
2017-09-06T03:56:49.284Z,999.89
2017-09-06T03:57:50.721Z,999.90
2017-09-06T03:58:52.802Z,999.88
2017-09-06T03:59:54.222Z,999.85
2017-09-06T04:00:55.638Z,999.84
2017-09-06T04:01:57.061Z,999.83
2017-09-06T04:02:58.495Z,999.80
2017-09-06T04:03:59.918Z,999.83
2017-09-06T04:05:01.333Z,999.80
2017-09-06T04:06:02.758Z,999.78
2017-09-06T04:07:04.176Z,999.79
2017-09-06T04:08:05.594Z,999.84
2017-09-06T04:09:07.017Z,999.88
2017-09-06T04:10:08.437Z,999.85
2017-09-06T04:11:09.858Z,999.86
2017-09-06T04:12:11.280Z,999.84
2017-09-06T04:13:12.698Z,999.78
2017-09-06T04:14:14.121Z,999.86
2017-09-06T04:15:15.541Z,999.76
2017-09-06T04:16:16.959Z,999.77
2017-09-06T04:17:18.379Z,999.82
2017-09-06T04:18:19.801Z,999.77
2017-09-06T04:19:21.228Z,999.77
2017-09-06T04:20:22.648Z,999.74
2017-09-06T04:21:24.067Z,999.71
2017-09-06T04:22:25.480Z,999.76
2017-09-06T04:23:26.903Z,999.75
2017-09-06T04:24:28.326Z,999.73
2017-09-06T04:25:29.757Z,999.67
2017-09-06T04:26:31.180Z,999.68
2017-09-06T04:27:32.607Z,999.68
2017-09-06T04:28:34.033Z,999.71
2017-09-06T04:29:35.521Z,999.67
2017-09-06T04:30:36.960Z,999.66
2017-09-06T04:31:38.376Z,999.65
2017-09-06T04:32:39.800Z,999.63
2017-09-06T04:33:41.218Z,999.62
2017-09-06T04:34:42.639Z,999.62
2017-09-06T04:35:44.059Z,999.67
2017-09-06T04:36:45.482Z,999.56
2017-09-06T04:37:46.895Z,999.64
2017-09-06T04:38:48.317Z,999.60
2017-09-06T04:39:49.740Z,999.64
2017-09-06T04:40:51.160Z,999.60
2017-09-06T04:41:52.582Z,999.58
2017-09-06T04:42:54.005Z,999.58
2017-09-06T04:43:55.423Z,999.62
2017-09-06T04:44:56.839Z,999.59
2017-09-06T04:45:58.257Z,999.57
2017-09-06T04:46:59.682Z,999.50
2017-09-06T04:48:01.101Z,999.51
2017-09-06T04:49:02.525Z,999.46
2017-09-06T04:50:03.945Z,999.53
2017-09-06T04:51:05.366Z,999.44
2017-09-06T04:52:06.787Z,999.48
2017-09-06T04:53:08.202Z,999.51
2017-09-06T04:54:09.630Z,999.51
2017-09-06T04:55:11.046Z,999.50
2017-09-06T04:56:12.475Z,999.48
2017-09-06T04:57:13.893Z,999.51
2017-09-06T04:58:15.321Z,999.49
2017-09-06T04:59:16.740Z,999.49
2017-09-06T05:00:18.159Z,999.56
2017-09-06T05:01:19.622Z,999.58
2017-09-06T05:02:21.055Z,999.57
2017-09-06T05:03:22.470Z,999.58
2017-09-06T05:04:23.894Z,999.55
2017-09-06T05:05:25.315Z,999.54
2017-09-06T05:06:26.748Z,999.54
2017-09-06T05:07:28.181Z,999.54
2017-09-06T05:08:29.614Z,999.52
2017-09-06T05:09:31.033Z,999.52
2017-09-06T05:10:32.462Z,999.49
2017-09-06T05:11:33.881Z,999.45
2017-09-06T05:12:35.304Z,999.42
2017-09-06T05:13:36.728Z,999.36
2017-09-06T05:14:38.146Z,999.32
2017-09-06T05:15:39.574Z,999.35
2017-09-06T05:16:41.000Z,999.39
2017-09-06T05:17:42.419Z,999.38
2017-09-06T05:18:43.846Z,999.40
2017-09-06T05:19:45.303Z,999.35
2017-09-06T05:20:46.721Z,999.36
2017-09-06T05:21:48.155Z,999.35
2017-09-06T05:22:49.623Z,999.37
2017-09-06T05:23:51.051Z,999.37
2017-09-06T05:24:52.471Z,999.36
2017-09-06T05:25:53.890Z,999.32
2017-09-06T05:26:55.316Z,999.28
2017-09-06T05:27:56.739Z,999.28
2017-09-06T05:28:58.168Z,999.21
2017-09-06T05:29:59.596Z,999.28
2017-09-06T05:31:01.021Z,999.24
2017-09-06T05:32:02.451Z,999.21
2017-09-06T05:33:03.873Z,999.22
2017-09-06T05:34:05.290Z,999.22
2017-09-06T05:35:06.706Z,999.21
2017-09-06T05:36:08.127Z,999.22
2017-09-06T05:37:09.546Z,999.18
2017-09-06T05:38:10.978Z,999.21
2017-09-06T05:39:12.404Z,999.21
2017-09-06T05:40:13.826Z,999.24
2017-09-06T05:41:15.249Z,999.22
2017-09-06T05:42:16.671Z,999.27
2017-09-06T05:43:18.094Z,999.25
2017-09-06T05:44:19.519Z,999.26
2017-09-06T05:45:20.942Z,999.27
2017-09-06T05:46:22.359Z,999.27
2017-09-06T05:47:23.778Z,999.27
2017-09-06T05:48:25.214Z,999.28
2017-09-06T05:49:26.628Z,999.27
2017-09-06T05:50:28.055Z,999.32
2017-09-06T05:51:29.490Z,999.35
2017-09-06T05:52:30.915Z,999.34
2017-09-06T05:53:32.949Z,999.35
2017-09-06T05:54:34.372Z,999.33
2017-09-06T05:55:35.796Z,999.35
2017-09-06T05:56:37.218Z,999.37
2017-09-06T05:57:38.641Z,999.31
2017-09-06T05:58:40.072Z,999.39
2017-09-06T05:59:41.500Z,999.35
2017-09-06T06:00:42.920Z,999.34
2017-09-06T06:01:44.336Z,999.33
2017-09-06T06:02:45.755Z,999.33
2017-09-06T06:03:47.179Z,999.32
2017-09-06T06:04:48.600Z,999.30
2017-09-06T06:05:50.027Z,999.36
2017-09-06T06:06:51.452Z,999.39
2017-09-06T06:07:52.878Z,999.43
2017-09-06T06:08:54.304Z,999.39
2017-09-06T06:09:55.723Z,999.39
2017-09-06T06:10:57.154Z,999.35
2017-09-06T06:11:58.586Z,999.47
2017-09-06T06:13:00.001Z,999.40
2017-09-06T06:14:01.433Z,999.41
2017-09-06T06:15:02.856Z,999.41
2017-09-06T06:16:04.282Z,999.47
2017-09-06T06:17:05.715Z,999.43
2017-09-06T06:18:07.170Z,999.45
2017-09-06T06:19:08.573Z,999.40
2017-09-06T06:20:10.002Z,999.42
2017-09-06T06:21:11.429Z,999.44
2017-09-06T06:22:12.851Z,999.35
2017-09-06T06:23:14.273Z,999.48
2017-09-06T06:24:15.700Z,999.42
2017-09-06T06:25:17.123Z,999.53
2017-09-06T06:26:18.540Z,999.51
2017-09-06T06:27:19.960Z,999.52
2017-09-06T06:28:21.383Z,999.50
2017-09-06T06:29:22.799Z,999.51
2017-09-06T06:30:24.222Z,999.52
2017-09-06T06:31:25.644Z,999.53
2017-09-06T06:32:27.067Z,999.48
2017-09-06T06:33:28.490Z,999.49
2017-09-06T06:34:29.917Z,999.51
2017-09-06T06:35:31.337Z,999.47
2017-09-06T06:36:32.767Z,999.47
2017-09-06T06:37:34.190Z,999.53
2017-09-06T06:38:35.618Z,999.57
2017-09-06T06:39:37.057Z,999.53
2017-09-06T06:40:38.495Z,999.53
2017-09-06T06:41:39.926Z,999.56
2017-09-06T06:42:41.352Z,999.58
2017-09-06T06:43:42.779Z,999.60
2017-09-06T06:44:44.198Z,999.56
2017-09-06T06:45:45.621Z,999.64
2017-09-06T06:46:47.109Z,999.60
2017-09-06T06:47:48.535Z,999.57
2017-09-06T06:48:49.970Z,999.60
2017-09-06T06:49:51.390Z,999.57
2017-09-06T06:50:52.811Z,999.56
2017-09-06T06:51:54.233Z,999.58
2017-09-06T06:52:55.743Z,999.57
2017-09-06T06:53:57.176Z,999.51
2017-09-06T06:54:58.619Z,999.58
2017-09-06T06:56:00.034Z,999.53
2017-09-06T06:57:01.571Z,999.51
2017-09-06T06:58:02.998Z,999.58
2017-09-06T06:59:04.433Z,999.51
2017-09-06T07:00:05.857Z,999.59
2017-09-06T07:01:07.286Z,999.58
2017-09-06T07:02:08.707Z,999.54
2017-09-06T07:03:10.129Z,999.56
2017-09-06T07:04:11.616Z,999.56
2017-09-06T07:05:13.046Z,999.52
2017-09-06T07:06:14.471Z,999.55
2017-09-06T07:07:15.899Z,999.52
2017-09-06T07:08:17.347Z,999.59
2017-09-06T07:09:18.779Z,999.58
2017-09-06T07:10:20.200Z,999.60
2017-09-06T07:11:21.666Z,999.59
2017-09-06T07:12:23.095Z,999.57
2017-09-06T07:13:24.517Z,999.52
2017-09-06T07:14:25.939Z,999.55
2017-09-06T07:15:27.363Z,999.56
2017-09-06T07:16:28.791Z,999.56
2017-09-06T07:17:30.210Z,999.52
2017-09-06T07:18:31.641Z,999.52
2017-09-06T07:19:33.067Z,999.55
2017-09-06T07:20:34.500Z,999.55
2017-09-06T07:21:35.924Z,999.50
2017-09-06T07:22:37.348Z,999.54
2017-09-06T07:23:38.780Z,999.59
2017-09-06T07:24:40.201Z,999.62
2017-09-06T07:25:41.625Z,999.51
2017-09-06T07:26:43.047Z,999.55
2017-09-06T07:27:44.485Z,999.59
2017-09-06T07:28:45.908Z,999.57
2017-09-06T07:29:47.326Z,999.50
2017-09-06T07:30:48.742Z,999.54
2017-09-06T07:31:50.171Z,999.53
2017-09-06T07:32:51.607Z,999.56
2017-09-06T07:33:53.028Z,999.57
2017-09-06T07:34:54.554Z,999.66
2017-09-06T07:35:55.992Z,999.66
2017-09-06T07:36:57.420Z,999.55
2017-09-06T07:37:58.847Z,999.61
2017-09-06T07:39:00.272Z,999.72
2017-09-06T07:40:01.700Z,999.63
2017-09-06T07:41:03.125Z,999.75
2017-09-06T07:42:04.560Z,999.76
2017-09-06T07:43:05.982Z,999.90
2017-09-06T07:44:07.401Z,999.77
2017-09-06T07:45:08.823Z,999.83
2017-09-06T07:46:10.242Z,999.86
2017-09-06T07:47:11.666Z,999.82
2017-09-06T07:48:13.092Z,999.82
2017-09-06T07:49:14.512Z,999.78
2017-09-06T07:50:15.939Z,999.87
2017-09-06T07:51:17.359Z,999.86
2017-09-06T07:52:18.786Z,999.89
2017-09-06T07:53:20.211Z,999.84
2017-09-06T07:54:21.641Z,999.90
2017-09-06T07:55:23.058Z,999.89
2017-09-06T07:56:24.486Z,999.86
2017-09-06T07:57:25.909Z,999.87
2017-09-06T07:58:27.332Z,999.92
2017-09-06T07:59:28.761Z,999.90
2017-09-06T08:00:30.195Z,999.96
2017-09-06T08:01:31.606Z,999.98
2017-09-06T08:02:33.042Z,999.98
2017-09-06T08:03:34.460Z,1000.04
2017-09-06T08:04:35.884Z,999.98
2017-09-06T08:05:37.307Z,1000.09
2017-09-06T08:06:38.729Z,1000.10
2017-09-06T08:07:40.164Z,1000.13
2017-09-06T08:08:41.601Z,1000.25
2017-09-06T08:09:43.027Z,1000.33
2017-09-06T08:10:44.453Z,1000.29
2017-09-06T08:11:45.873Z,1000.43
2017-09-06T08:12:47.341Z,1000.43
2017-09-06T08:13:48.768Z,1000.44
2017-09-06T08:14:50.192Z,1000.60
2017-09-06T08:15:51.652Z,1000.56
2017-09-06T08:16:53.190Z,1000.63
2017-09-06T08:17:54.621Z,1000.79
2017-09-06T08:18:56.050Z,1000.65
2017-09-06T08:19:58.139Z,1000.80
2017-09-06T08:20:58.850Z,1000.81
2017-09-06T08:22:00.267Z,1000.86
2017-09-06T08:23:01.699Z,1000.85
2017-09-06T08:24:03.129Z,1000.89
2017-09-06T08:25:04.557Z,1001.00
2017-09-06T08:26:05.983Z,1001.02
2017-09-06T08:27:07.402Z,1001.12
2017-09-06T08:28:08.831Z,1001.13
2017-09-06T08:29:10.260Z,1001.09
2017-09-06T08:30:11.699Z,1001.17
2017-09-06T08:31:13.126Z,1001.19
2017-09-06T08:32:14.558Z,1001.22
2017-09-06T08:33:15.978Z,1001.21
2017-09-06T08:34:17.398Z,1001.13
2017-09-06T08:35:18.826Z,1001.19
2017-09-06T08:36:20.244Z,1001.26
2017-09-06T08:37:21.672Z,1001.31
2017-09-06T08:38:23.104Z,1001.24
2017-09-06T08:39:24.533Z,1001.33
2017-09-06T08:40:25.975Z,1001.30
2017-09-06T08:41:27.408Z,1001.35
2017-09-06T08:42:28.830Z,1001.45
2017-09-06T08:43:30.261Z,1001.44
2017-09-06T08:44:31.692Z,1001.54
2017-09-06T08:45:33.116Z,1001.54
2017-09-06T08:46:34.546Z,1001.63
2017-09-06T08:47:35.971Z,1001.57
2017-09-06T08:48:37.401Z,1001.63
2017-09-06T08:49:38.841Z,1001.71
2017-09-06T08:50:40.261Z,1001.76
2017-09-06T08:51:41.683Z,1001.71
2017-09-06T08:52:43.107Z,1001.68
2017-09-06T08:53:44.543Z,1001.62
2017-09-06T08:54:45.972Z,1001.75
2017-09-06T08:55:47.390Z,1001.81
2017-09-06T08:56:48.819Z,1001.77
2017-09-06T08:57:50.242Z,1001.84
2017-09-06T08:58:51.674Z,1001.94
2017-09-06T08:59:53.101Z,1001.93
2017-09-06T09:00:54.524Z,1001.88
2017-09-06T09:01:55.943Z,1001.95
2017-09-06T09:02:57.382Z,1002.00
2017-09-06T09:03:58.805Z,1001.92
2017-09-06T09:05:00.233Z,1002.06
2017-09-06T09:06:01.651Z,1002.11
2017-09-06T09:07:03.077Z,1002.00
2017-09-06T09:08:04.505Z,1002.12
2017-09-06T09:09:05.948Z,1002.14
2017-09-06T09:10:07.373Z,1002.11
2017-09-06T09:11:08.793Z,1002.16
2017-09-06T09:12:10.216Z,1002.16
2017-09-06T09:13:11.657Z,1002.20
2017-09-06T09:14:13.091Z,1002.19
2017-09-06T09:15:14.512Z,1002.14
2017-09-06T09:16:15.942Z,1002.19
2017-09-06T09:17:17.406Z,1002.17
2017-09-06T09:18:18.833Z,1002.12
2017-09-06T09:19:20.261Z,1002.17
2017-09-06T09:20:21.688Z,1002.21
2017-09-06T09:21:23.124Z,1002.20
2017-09-06T09:22:24.548Z,1002.20
2017-09-06T09:23:25.971Z,1002.26
2017-09-06T09:24:27.407Z,1002.30
2017-09-06T09:25:28.937Z,1002.24
2017-09-06T09:26:31.156Z,1002.32
2017-09-06T09:27:31.799Z,1002.35
2017-09-06T09:28:33.232Z,1002.33
2017-09-06T09:29:34.659Z,1002.32
2017-09-06T09:30:36.085Z,1002.37
2017-09-06T09:31:37.514Z,1002.43
2017-09-06T09:32:38.944Z,1002.38
2017-09-06T09:33:40.372Z,1002.35
2017-09-06T09:34:41.798Z,1002.37
2017-09-06T09:35:43.218Z,1002.39
2017-09-06T09:36:44.649Z,1002.38
2017-09-06T09:37:46.079Z,1002.33
2017-09-06T09:38:47.520Z,1002.38
2017-09-06T09:39:48.948Z,1002.27
2017-09-06T09:40:50.369Z,1002.42
2017-09-06T09:41:51.793Z,1002.48
2017-09-06T09:42:53.218Z,1002.47
2017-09-06T09:43:54.645Z,1002.45
2017-09-06T09:44:56.068Z,1002.48
2017-09-06T09:45:57.494Z,1002.46
2017-09-06T09:46:58.927Z,1002.47
2017-09-06T09:48:00.346Z,1002.46
2017-09-06T09:49:01.783Z,1002.49
2017-09-06T09:50:03.224Z,1002.50
2017-09-06T09:51:04.642Z,1002.52
2017-09-06T09:52:06.068Z,1002.51
2017-09-06T09:53:07.488Z,1002.52
2017-09-06T09:54:08.914Z,1002.57
2017-09-06T09:55:10.359Z,1002.55
2017-09-06T09:56:11.774Z,1002.52
2017-09-06T09:57:13.200Z,1002.59
2017-09-06T09:58:14.632Z,1002.51
2017-09-06T09:59:16.061Z,1002.57
2017-09-06T10:00:17.492Z,1002.60
2017-09-06T10:01:18.917Z,1002.56
2017-09-06T10:02:20.360Z,1002.63
2017-09-06T10:03:21.857Z,1002.68
2017-09-06T10:04:24.806Z,1002.68
2017-09-06T10:05:26.207Z,1002.79
2017-09-06T10:06:27.634Z,1002.92
2017-09-06T10:07:29.242Z,1002.99
2017-09-06T10:08:31.048Z,1003.03
2017-09-06T10:09:32.894Z,1002.96
2017-09-06T10:10:34.313Z,1003.04
2017-09-06T10:11:35.734Z,1003.02
2017-09-06T10:12:37.222Z,1002.92
2017-09-06T10:13:38.648Z,1003.00
2017-09-06T10:14:40.066Z,1003.20
2017-09-06T10:15:41.498Z,1003.26
2017-09-06T10:16:42.938Z,1003.33
2017-09-06T10:17:44.372Z,1003.15
2017-09-06T10:18:45.812Z,1003.40
2017-09-06T10:19:47.252Z,1003.34
2017-09-06T10:20:48.685Z,1003.38
2017-09-06T10:21:50.114Z,1003.38
2017-09-06T10:22:51.540Z,1003.13
2017-09-06T10:23:52.969Z,1003.36
2017-09-06T10:24:54.398Z,1003.31
2017-09-06T10:25:55.823Z,1003.52
2017-09-06T10:26:57.246Z,1003.54
2017-09-06T10:27:58.666Z,1003.75
2017-09-06T10:29:00.097Z,1003.76
2017-09-06T10:30:01.519Z,1003.76
2017-09-06T10:31:02.948Z,1003.49
2017-09-06T10:32:04.379Z,1003.62
2017-09-06T10:33:05.818Z,1003.69
2017-09-06T10:34:07.236Z,1003.74
2017-09-06T10:35:08.657Z,1003.79
2017-09-06T10:36:10.087Z,1003.66
2017-09-06T10:37:11.505Z,1003.45
2017-09-06T10:38:12.930Z,1003.65
2017-09-06T10:39:14.357Z,1003.76
2017-09-06T10:40:15.777Z,1003.75
2017-09-06T10:41:17.200Z,1003.79
2017-09-06T10:42:18.630Z,1003.88
2017-09-06T10:43:20.061Z,1003.88
2017-09-06T10:44:21.490Z,1003.94
2017-09-06T10:45:22.910Z,1003.83
2017-09-06T10:46:24.332Z,1003.93
2017-09-06T10:47:25.750Z,1003.92
2017-09-06T10:48:27.183Z,1003.90
2017-09-06T10:49:28.605Z,1003.97
2017-09-06T10:50:30.032Z,1003.94
2017-09-06T10:51:31.453Z,1003.97
2017-09-06T10:52:32.899Z,1004.00
2017-09-06T10:53:34.323Z,1004.04
2017-09-06T10:54:35.756Z,1004.00
2017-09-06T10:55:37.181Z,1003.97
2017-09-06T10:56:38.607Z,1003.93
2017-09-06T10:57:40.041Z,1003.98
2017-09-06T10:58:41.472Z,1004.02
2017-09-06T10:59:42.902Z,1003.99
2017-09-06T11:00:44.338Z,1004.07
2017-09-06T11:01:45.772Z,1004.04
2017-09-06T11:02:47.193Z,1004.12
2017-09-06T11:03:48.622Z,1004.22
2017-09-06T11:04:50.051Z,1004.16
2017-09-06T11:05:51.474Z,1004.23
2017-09-06T11:06:52.901Z,1004.27
2017-09-06T11:07:54.329Z,1004.38
2017-09-06T11:08:55.794Z,1004.25
2017-09-06T11:09:57.290Z,1004.26
2017-09-06T11:10:58.715Z,1004.34
2017-09-06T11:12:00.151Z,1004.45
2017-09-06T11:13:01.584Z,1004.48
2017-09-06T11:14:03.049Z,1004.46
2017-09-06T11:15:04.473Z,1004.53
2017-09-06T11:16:05.895Z,1004.62
2017-09-06T11:17:07.325Z,1004.63
2017-09-06T11:18:08.745Z,1004.55
2017-09-06T11:19:10.180Z,1004.56
2017-09-06T11:20:11.618Z,1004.63
2017-09-06T11:21:13.070Z,1004.65
2017-09-06T11:22:14.481Z,1004.68
2017-09-06T11:23:15.889Z,1004.70
2017-09-06T11:24:17.421Z,1004.70
2017-09-06T11:25:18.860Z,1004.72
2017-09-06T11:26:20.287Z,1004.69
2017-09-06T11:27:21.713Z,1004.67
2017-09-06T11:28:23.223Z,1004.70
2017-09-06T11:29:24.649Z,1004.72
2017-09-06T11:30:26.088Z,1004.73
2017-09-06T11:31:27.515Z,1004.81
2017-09-06T11:32:28.946Z,1004.77
2017-09-06T11:33:30.369Z,1004.74
2017-09-06T11:34:31.804Z,1004.78
2017-09-06T11:35:33.237Z,1004.83
2017-09-06T11:36:34.662Z,1004.79
2017-09-06T11:37:36.087Z,1004.80
2017-09-06T11:38:37.530Z,1004.80
2017-09-06T11:39:38.957Z,1004.70
2017-09-06T11:40:40.390Z,1004.82
2017-09-06T11:41:41.820Z,1004.86
2017-09-06T11:42:43.246Z,1004.83
2017-09-06T11:43:44.670Z,1004.84
2017-09-06T11:44:46.098Z,1004.92
2017-09-06T11:45:47.537Z,1004.86
2017-09-06T11:46:48.961Z,1004.70
2017-09-06T11:47:50.395Z,1004.74
2017-09-06T11:48:51.825Z,1004.89
2017-09-06T11:49:53.249Z,1004.81
2017-09-06T11:50:54.672Z,1005.01
2017-09-06T11:51:56.113Z,1005.06
2017-09-06T11:52:57.533Z,1005.03
2017-09-06T11:53:58.972Z,1004.93
2017-09-06T11:55:00.404Z,1004.94
2017-09-06T11:56:01.834Z,1004.89
2017-09-06T11:57:03.266Z,1004.96
2017-09-06T11:58:04.689Z,1004.95
2017-09-06T11:59:06.135Z,1004.98
2017-09-06T12:00:07.565Z,1004.96
2017-09-06T12:01:08.991Z,1004.94
2017-09-06T12:02:10.425Z,1004.87
2017-09-06T12:03:11.857Z,1004.94
2017-09-06T12:04:13.281Z,1005.15
2017-09-06T12:05:14.710Z,1005.16
2017-09-06T12:06:16.141Z,1005.15
2017-09-06T12:07:17.565Z,1005.17
2017-09-06T12:08:18.999Z,1005.20
2017-09-06T12:09:20.422Z,1005.18
2017-09-06T12:10:21.858Z,1005.10
2017-09-06T12:11:23.286Z,1005.11
2017-09-06T12:12:24.722Z,1005.16
2017-09-06T12:13:26.146Z,1005.07
2017-09-06T12:14:27.579Z,1005.05
2017-09-06T12:15:29.013Z,1005.07
2017-09-06T12:16:30.437Z,1004.99
2017-09-06T12:17:31.870Z,1005.07
2017-09-06T12:18:33.318Z,1004.99
2017-09-06T12:19:34.760Z,1005.11
2017-09-06T12:20:36.203Z,1005.11
2017-09-06T12:21:37.645Z,1005.15
2017-09-06T12:22:39.075Z,1005.08
2017-09-06T12:23:40.511Z,1005.13
2017-09-06T12:24:41.954Z,1005.04
2017-09-06T12:25:43.387Z,1005.08
2017-09-06T12:26:44.816Z,1005.08
2017-09-06T12:27:46.261Z,1005.12
2017-09-06T12:28:47.705Z,1005.07
2017-09-06T12:29:49.133Z,1005.19
2017-09-06T12:30:50.557Z,1005.11
2017-09-06T12:31:51.992Z,1005.19